Time;durP1;ratioP1;P1;durP2;ratioP2;P2;SDS_P1;SDS_P2;PMS_P1;PMS_P2;Temp;Humidity;BMP_temperature;BMP_pressure;BME280_temperature;BME280_humidity;BME280_pressure;Samples;Min_cycle;Max_cycle;Signal;HPM_P1;HPM_P2
2022/06/08 00:02:01;;;;;;;3.23;1.70;;;;;;;13.82;100.00;96164.25;5082692;28;20197;-83
2022/06/08 00:04:28;;;;;;;1.50;1.40;;;;;;;13.81;100.00;96167.22;5063922;28;20205;-84
2022/06/08 00:06:56;;;;;;;2.40;1.63;;;;;;;13.79;100.00;96162.03;5078135;28;20229;-83
2022/06/08 00:09:23;;;;;;;1.60;1.50;;;;;;;13.86;100.00;96159.97;5058613;28;20206;-83
2022/06/08 00:11:50;;;;;;;2.73;1.50;;;;;;;13.87;100.00;96169.72;5076269;28;20226;-84
2022/06/08 00:14:18;;;;;;;1.87;1.47;;;;;;;13.80;100.00;96162.84;5068343;28;20269;-82
2022/06/08 00:16:46;;;;;;;1.87;1.50;;;;;;;13.77;100.00;96153.34;5063630;28;20226;-83
2022/06/08 00:19:14;;;;;;;3.40;1.47;;;;;;;13.79;100.00;96142.22;5080992;28;20205;-83
2022/06/08 00:21:41;;;;;;;1.97;1.63;;;;;;;13.81;100.00;96153.66;5065072;28;20209;-83
2022/06/08 00:24:08;;;;;;;2.57;1.70;;;;;;;13.81;100.00;96140.06;5060557;28;20289;-82
2022/06/08 00:26:36;;;;;;;1.60;1.50;;;;;;;13.95;100.00;96149.47;5077873;28;20206;-83
2022/06/08 00:29:04;;;;;;;3.63;1.70;;;;;;;13.91;100.00;96140.19;5061406;28;20269;-82
2022/06/08 00:31:32;;;;;;;2.40;1.50;;;;;;;13.98;100.00;96146.22;5067255;28;20298;-84
2022/06/08 00:34:00;;;;;;;2.97;1.80;;;;;;;13.98;100.00;96140.78;5080518;28;20202;-83
2022/06/08 00:36:27;;;;;;;1.60;1.40;;;;;;;14.01;100.00;96137.56;5077849;28;20200;-83
2022/06/08 00:38:55;;;;;;;1.83;1.60;;;;;;;14.06;100.00;96125.94;5079191;28;20322;-83
2022/06/08 00:41:39;;;;;;;3.17;1.67;;;;;;;14.08;100.00;96129.22;5074993;28;20290;-83
2022/06/08 00:44:09;;;;;;;3.50;2.10;;;;;;;14.11;100.00;96120.56;5072981;28;20226;-83
2022/06/08 00:46:37;;;;;;;2.47;1.57;;;;;;;14.10;100.00;96114.31;5070378;28;20209;-84
2022/06/08 00:49:14;;;;;;;2.40;1.60;;;;;;;14.19;100.00;96115.50;5086070;28;20205;-83
2022/06/08 00:51:41;;;;;;;1.97;1.57;;;;;;;14.17;100.00;96105.94;5064468;28;20250;-83
2022/06/08 00:54:13;;;;;;;4.07;1.70;;;;;;;14.18;100.00;96110.31;5063842;28;20212;-83
2022/06/08 00:56:46;;;;;;;2.63;1.60;;;;;;;14.21;100.00;96113.31;5062238;28;20286;-84
2022/06/08 00:59:13;;;;;;;2.27;1.60;;;;;;;14.21;100.00;96110.59;5050705;28;20209;-84
2022/06/08 01:01:40;;;;;;;4.00;1.50;;;;;;;14.15;100.00;96105.38;5060827;28;20292;-84
2022/06/08 01:04:12;;;;;;;4.50;1.60;;;;;;;14.12;100.00;96105.91;5065536;28;20213;-83
2022/06/08 01:06:42;;;;;;;3.30;2.00;;;;;;;14.13;100.00;96104.81;5077306;28;20272;-83
2022/06/08 01:09:17;;;;;;;4.00;1.70;;;;;;;14.16;100.00;96098.88;5065018;28;20278;-84
2022/06/08 01:11:48;;;;;;;3.70;1.90;;;;;;;14.13;100.00;96089.34;5066563;28;20236;-83
2022/06/08 01:14:18;;;;;;;3.13;1.77;;;;;;;14.17;100.00;96092.38;5079485;28;20296;-84
2022/06/08 01:16:51;;;;;;;1.50;1.40;;;;;;;14.22;100.00;96092.41;5084782;28;20334;-84
2022/06/08 01:19:22;;;;;;;1.60;1.50;;;;;;;14.23;100.00;96094.88;5066713;28;20213;-82
2022/06/08 01:21:57;;;;;;;6.20;1.60;;;;;;;14.21;100.00;96085.34;5080069;28;20213;-84
2022/06/08 01:24:32;;;;;;;3.30;1.80;;;;;;;14.16;100.00;96083.41;5074774;28;20237;-85
2022/06/08 01:27:16;;;;;;;3.27;1.60;;;;;;;14.14;100.00;96082.84;5057227;28;20221;-83
2022/06/08 01:29:53;;;;;;;2.63;1.67;;;;;;;14.15;100.00;96084.47;5076928;28;20217;-84
2022/06/08 01:32:28;;;;;;;1.70;1.50;;;;;;;14.17;100.00;96078.81;5078112;28;20196;-84
2022/06/08 01:35:11;;;;;;;1.53;1.40;;;;;;;14.04;100.00;96066.47;5066460;28;20205;-85
2022/06/08 01:37:48;;;;;;;1.83;1.60;;;;;;;13.97;100.00;96069.41;5062946;28;20236;-83
2022/06/08 01:40:40;;;;;;;4.57;1.90;;;;;;;13.95;100.00;96071.53;5064613;28;20204;-83
2022/06/08 01:43:20;;;;;;;2.27;2.07;;;;;;;13.97;100.00;96057.72;5053002;28;20197;-83
2022/06/08 01:46:02;;;;;;;2.23;1.90;;;;;;;14.01;100.00;96056.97;5059321;28;20221;-82
2022/06/08 01:49:03;;;;;;;2.23;1.90;;;;;;;14.07;100.00;96063.25;5062859;28;20236;-82
2022/06/08 01:51:47;;;;;;;2.87;2.00;;;;;;;14.06;100.00;96053.44;5036152;28;20237;-83
2022/06/08 01:54:28;;;;;;;2.20;2.00;;;;;;;14.02;100.00;96045.03;5059542;28;20206;-83
2022/06/08 01:57:08;;;;;;;4.00;2.27;;;;;;;13.94;100.00;96052.81;5075505;28;20362;-82
2022/06/08 01:59:43;;;;;;;2.50;2.20;;;;;;;13.85;100.00;96040.81;5081235;28;20209;-84
2022/06/08 02:02:17;;;;;;;2.93;2.40;;;;;;;13.81;100.00;96047.81;5081078;28;20193;-84
2022/06/08 02:04:51;;;;;;;2.63;2.43;;;;;;;13.88;100.00;96051.94;5071535;28;20209;-83
2022/06/08 02:07:27;;;;;;;2.30;2.10;;;;;;;13.88;100.00;96032.13;5073651;28;20206;-84
2022/06/08 02:10:02;;;;;;;4.00;2.67;;;;;;;13.92;100.00;96036.78;5077126;28;20213;-83
2022/06/08 02:12:34;;;;;;;3.33;2.10;;;;;;;13.90;100.00;96035.41;5058427;28;20209;-83
2022/06/08 02:15:09;;;;;;;3.30;2.57;;;;;;;13.84;100.00;96047.31;5061011;28;20201;-84
2022/06/08 02:17:50;;;;;;;5.13;1.97;;;;;;;13.76;100.00;96035.03;5079744;28;20198;-83
2022/06/08 02:20:21;;;;;;;2.93;2.00;;;;;;;13.82;100.00;96033.16;5081212;28;20236;-85
2022/06/08 02:22:54;;;;;;;6.10;2.20;;;;;;;13.79;100.00;96023.63;5058103;28;20225;-84
2022/06/08 02:25:28;;;;;;;3.87;2.00;;;;;;;13.78;100.00;96023.91;5061342;28;20201;-83
2022/06/08 02:28:03;;;;;;;4.33;2.17;;;;;;;13.85;100.00;96027.22;5059565;28;20199;-83
2022/06/08 02:30:37;;;;;;;2.30;1.87;;;;;;;13.96;100.00;96032.47;5053666;28;20317;-83
2022/06/08 02:36:02;;;;;;;5.70;1.93;;;;;;;13.88;100.00;96029.41;5076282;28;20206;-84
2022/06/08 02:38:35;;;;;;;2.57;2.07;;;;;;;13.88;100.00;96042.97;5077747;28;20197;-84
2022/06/08 02:41:07;;;;;;;3.77;2.13;;;;;;;13.84;100.00;96039.16;5051298;28;20198;-83
2022/06/08 02:43:41;;;;;;;3.97;1.77;;;;;;;13.81;100.00;96023.38;5073807;28;20239;-84
2022/06/08 02:46:20;;;;;;;1.87;1.77;;;;;;;13.86;100.00;96028.88;5064127;28;20193;-84
2022/06/08 02:48:49;;;;;;;2.77;1.90;;;;;;;13.87;100.00;96025.06;5077208;28;20254;-84
2022/06/08 02:51:16;;;;;;;2.47;1.87;;;;;;;13.88;100.00;96029.41;5063617;28;20226;-84
2022/06/08 02:53:58;;;;;;;1.80;1.57;;;;;;;13.93;100.00;96037.63;5080620;28;20190;-84
2022/06/08 02:56:57;;;;;;;1.97;1.77;;;;;;;13.85;100.00;96043.50;5074525;28;20216;-84
2022/06/08 02:59:32;;;;;;;3.17;1.70;;;;;;;13.82;100.00;96042.13;5076638;28;20205;-84
2022/06/08 03:02:08;;;;;;;2.80;1.70;;;;;;;13.86;100.00;96047.88;5076610;28;20205;-84
2022/06/08 03:04:43;;;;;;;3.30;1.90;;;;;;;13.88;100.00;96042.97;5071582;28;20300;-83
2022/06/08 03:07:17;;;;;;;2.93;2.03;;;;;;;13.83;100.00;96035.63;5075278;28;20217;-84
2022/06/08 03:09:46;;;;;;;2.20;1.90;;;;;;;13.88;100.00;96046.50;5079396;28;20255;-83
2022/06/08 03:12:22;;;;;;;5.73;2.10;;;;;;;13.86;100.00;96047.88;5058802;28;20217;-83
2022/06/08 03:14:50;;;;;;;6.17;2.40;;;;;;;13.77;100.00;96038.56;5078361;28;20201;-84
2022/06/08 03:17:24;;;;;;;5.00;2.30;;;;;;;13.81;100.00;96042.38;5081212;28;20275;-84
2022/06/08 03:19:52;;;;;;;3.87;1.83;;;;;;;13.76;100.00;96032.31;5079528;28;20205;-85
2022/06/08 03:22:19;;;;;;;6.60;2.50;;;;;;;13.68;100.00;96027.34;5060308;28;20258;-83
2022/06/08 03:24:46;;;;;;;4.03;2.50;;;;;;;13.61;100.00;96013.97;5063037;28;20209;-83
2022/06/08 03:27:14;;;;;;;4.40;2.60;;;;;;;13.60;100.00;96009.66;5057826;28;20208;-83
2022/06/08 03:29:48;;;;;;;3.00;2.10;;;;;;;13.58;100.00;96016.41;5076531;28;20197;-83
2022/06/08 03:32:15;;;;;;;3.77;2.10;;;;;;;13.57;100.00;96017.47;5081534;28;20313;-84
2022/06/08 03:34:42;;;;;;;2.90;1.60;;;;;;;13.49;100.00;96013.34;5064520;28;20233;-85
2022/06/08 03:37:11;;;;;;;2.00;1.80;;;;;;;13.48;100.00;96005.44;5064272;28;20208;-84
2022/06/08 03:39:43;;;;;;;2.70;1.90;;;;;;;13.46;100.00;95985.91;5079502;28;20267;-83
2022/06/08 03:42:10;;;;;;;3.93;2.23;;;;;;;13.49;100.00;95991.63;5084392;28;20213;-83
2022/06/08 03:44:37;;;;;;;2.93;2.60;;;;;;;13.44;100.00;95988.88;5069253;28;20256;-83
2022/06/08 03:47:10;;;;;;;3.73;2.87;;;;;;;13.43;100.00;95984.53;5064548;28;20213;-84
2022/06/08 03:49:38;;;;;;;2.67;2.30;;;;;;;13.54;100.00;95988.97;5075872;28;20226;-83
2022/06/08 03:52:11;;;;;;;2.63;2.30;;;;;;;13.41;100.00;95981.25;5080931;28;20220;-83
2022/06/08 03:54:47;;;;;;;3.03;2.03;;;;;;;13.42;100.00;95991.03;5080571;28;20263;-84
2022/06/08 03:57:16;;;;;;;2.73;2.20;;;;;;;13.33;100.00;95984.44;5077365;28;20216;-85
2022/06/08 03:59:47;;;;;;;6.40;2.67;;;;;;;13.29;100.00;95982.47;5081080;28;20269;-84
2022/06/08 04:02:16;;;;;;;3.50;2.00;;;;;;;13.31;100.00;95986.56;5075945;28;20592;-84
2022/06/08 04:04:46;;;;;;;4.40;2.90;;;;;;;13.20;100.00;95982.13;5064513;28;20201;-83
2022/06/08 04:07:14;;;;;;;2.93;1.70;;;;;;;13.11;100.00;95995.28;5065907;28;20197;-83
2022/06/08 04:09:45;;;;;;;1.50;1.30;;;;;;;13.07;100.00;95993.34;5065291;28;20280;-83
2022/06/08 04:12:13;;;;;;;2.83;1.60;;;;;;;13.05;100.00;95979.22;5067756;28;20313;-83
2022/06/08 04:14:41;;;;;;;2.70;1.83;;;;;;;13.10;100.00;95992.84;5058292;28;20206;-83
2022/06/08 04:17:12;;;;;;;2.10;1.90;;;;;;;13.09;100.00;95991.19;5067244;28;20228;-83
2022/06/08 04:19:41;;;;;;;1.97;1.80;;;;;;;13.15;100.00;95991.03;5062112;28;20206;-83
2022/06/08 04:22:08;;;;;;;3.33;2.07;;;;;;;13.09;100.00;95983.91;5064185;28;20289;-85
2022/06/08 04:24:38;;;;;;;2.03;1.80;;;;;;;13.01;100.00;95973.50;5073576;28;20212;-84
2022/06/08 04:27:06;;;;;;;4.33;2.10;;;;;;;13.08;100.00;95968.69;5050304;28;20204;-84
2022/06/08 04:29:40;;;;;;;3.83;2.17;;;;;;;13.09;100.00;95966.81;5075628;28;20209;-83
2022/06/08 04:32:10;;;;;;;1.97;1.87;;;;;;;13.03;100.00;95965.91;5066380;28;20271;-83
2022/06/08 04:34:38;;;;;;;7.50;2.07;;;;;;;12.99;100.00;95964.81;5062800;28;20233;-82
2022/06/08 04:37:07;;;;;;;3.50;1.80;;;;;;;12.92;100.00;95947.94;5078041;28;20209;-83
2022/06/08 04:39:40;;;;;;;4.70;2.30;;;;;;;12.91;100.00;95940.06;5066536;28;20196;-84
2022/06/08 04:42:08;;;;;;;3.03;2.10;;;;;;;12.86;100.00;95933.50;5076707;28;20267;-83
2022/06/08 04:44:42;;;;;;;5.23;1.80;;;;;;;12.81;100.00;95927.22;5064772;28;20240;-83
2022/06/08 04:47:14;;;;;;;2.67;2.27;;;;;;;12.90;100.00;95922.97;5066067;28;20205;-83
2022/06/08 04:49:43;;;;;;;4.53;2.20;;;;;;;12.93;100.00;95917.03;5076643;28;20220;-84
2022/06/08 04:52:12;;;;;;;5.43;2.03;;;;;;;13.02;100.00;95915.50;5078692;28;20220;-83
2022/06/08 04:54:39;;;;;;;3.03;2.03;;;;;;;12.99;100.00;95912.50;5064218;28;20201;-83
2022/06/08 04:57:06;;;;;;;2.20;2.00;;;;;;;13.00;100.00;95914.13;5061768;28;20202;-83
2022/06/08 04:59:34;;;;;;;3.53;2.70;;;;;;;12.99;100.00;95907.06;5085190;28;20220;-84
2022/06/08 05:02:10;;;;;;;3.40;2.17;;;;;;;13.11;100.00;95907.72;5065181;28;20201;-84
2022/06/08 05:04:38;;;;;;;4.87;2.20;;;;;;;13.16;100.00;95899.69;5059112;28;20221;-84
2022/06/08 05:07:07;;;;;;;5.07;2.97;;;;;;;13.24;100.00;95907.34;5065200;28;20197;-83
2022/06/08 05:09:37;;;;;;;4.63;2.53;;;;;;;13.18;100.00;95887.47;5082374;28;20198;-83
2022/06/08 05:12:06;;;;;;;5.93;2.60;;;;;;;13.12;100.00;95883.06;5059047;28;20293;-83
2022/06/08 05:14:33;;;;;;;2.93;2.00;;;;;;;13.16;100.00;95888.84;5064189;28;20230;-83
2022/06/08 05:17:00;;;;;;;4.83;2.10;;;;;;;13.22;100.00;95895.94;5063128;28;20294;-85
2022/06/08 05:19:27;;;;;;;3.37;2.00;;;;;;;13.17;100.00;95872.31;5075636;28;20210;-84
2022/06/08 05:21:55;;;;;;;3.57;2.20;;;;;;;13.14;100.00;95880.97;5084292;28;20211;-84
2022/06/08 05:24:26;;;;;;;5.17;2.20;;;;;;;13.17;100.00;95887.75;5080127;28;20260;-84
2022/06/08 05:26:56;;;;;;;3.87;2.17;;;;;;;13.20;100.00;95889.94;5066559;28;20296;-84
2022/06/08 05:29:23;;;;;;;2.93;1.60;;;;;;;13.18;100.00;95884.78;5077608;28;20216;-83
2022/06/08 05:31:55;;;;;;;2.20;1.97;;;;;;;13.21;100.00;95875.31;5061868;28;20221;-83
2022/06/08 05:34:25;;;;;;;5.00;2.20;;;;;;;13.18;100.00;95882.06;5077299;28;20255;-84
2022/06/08 05:36:54;;;;;;;4.43;2.03;;;;;;;13.16;100.00;95876.09;5073931;28;20226;-84
2022/06/08 05:39:24;;;;;;;2.27;1.90;;;;;;;13.15;100.00;95873.66;5061732;28;20214;-84
2022/06/08 05:41:51;;;;;;;3.80;2.17;;;;;;;13.16;100.00;95872.56;5079183;28;20273;-85
2022/06/08 05:44:21;;;;;;;2.00;1.80;;;;;;;13.17;100.00;95875.03;5062707;28;20280;-84
2022/06/08 05:46:52;;;;;;;1.93;1.77;;;;;;;13.09;100.00;95875.47;5078833;28;20225;-84
2022/06/08 05:49:19;;;;;;;3.47;2.07;;;;;;;13.10;100.00;95879.78;5064751;28;20208;-83
2022/06/08 05:51:49;;;;;;;3.90;2.60;;;;;;;13.11;100.00;95876.00;5061821;28;20217;-84
2022/06/08 05:54:21;;;;;;;3.40;2.20;;;;;;;13.23;100.00;95881.31;5074337;28;20208;-83
2022/06/08 05:56:49;;;;;;;5.77;2.50;;;;;;;13.19;100.00;95872.84;5075763;28;20227;-83
2022/06/08 05:59:17;;;;;;;4.33;2.70;;;;;;;13.23;100.00;95882.13;5062263;28;20233;-84
2022/06/08 06:01:46;;;;;;;5.77;2.67;;;;;;;13.24;100.00;95888.38;5064148;28;20228;-82
2022/06/08 06:04:13;;;;;;;5.20;2.60;;;;;;;13.22;100.00;95885.09;5061514;28;20216;-83
2022/06/08 06:06:45;;;;;;;3.70;2.40;;;;;;;13.24;100.00;95882.94;5055954;28;20213;-82
2022/06/08 06:09:16;;;;;;;3.17;2.60;;;;;;;13.24;100.00;95886.47;5082738;28;20214;-84
2022/06/08 06:11:43;;;;;;;4.57;2.13;;;;;;;13.07;100.00;95880.31;5067566;28;20221;-82
2022/06/08 06:14:12;;;;;;;2.20;1.70;;;;;;;13.12;100.00;95876.81;5063013;28;20277;-83
2022/06/08 06:16:43;;;;;;;2.20;2.00;;;;;;;13.17;100.00;95874.22;5064235;28;20229;-83
2022/06/08 06:19:12;;;;;;;3.83;2.40;;;;;;;13.09;100.00;95886.31;5062774;28;20209;-82
2022/06/08 06:21:53;;;;;;;2.90;1.67;;;;;;;13.03;100.00;95875.66;5062600;28;20206;-86
2022/06/08 06:24:38;;;;;;;1.87;1.70;;;;;;;13.03;100.00;95872.94;5060079;28;20211;-84
2022/06/08 06:27:21;;;;;;;1.70;1.60;;;;;;;13.05;100.00;95873.53;5079041;28;20205;-86
2022/06/08 06:30:06;;;;;;;3.30;1.50;;;;;;;13.05;100.00;95870.81;5064973;28;20204;-86
2022/06/08 06:32:46;;;;;;;5.27;1.70;;;;;;;13.10;100.00;95866.25;5062640;28;20221;-86
2022/06/08 06:35:21;;;;;;;2.10;1.50;;;;;;;13.15;100.00;95870.94;5055395;28;20221;-83
2022/06/08 06:37:49;;;;;;;1.87;1.60;;;;;;;13.10;100.00;95865.44;5065459;28;20211;-83
2022/06/08 06:40:17;;;;;;;4.60;1.60;;;;;;;13.07;100.00;95876.78;5064797;28;20211;-86
2022/06/08 06:42:46;;;;;;;3.90;1.70;;;;;;;13.10;100.00;95873.59;5062506;28;20209;-86
2022/06/08 06:45:29;;;;;;;1.93;1.73;;;;;;;13.17;100.00;95874.22;5065520;28;20241;-86
2022/06/08 06:48:16;;;;;;;3.43;2.30;;;;;;;13.25;100.00;95868.31;5059305;28;20252;-87
2022/06/08 06:50:46;;;;;;;2.27;1.50;;;;;;;13.31;100.00;95875.41;5077813;28;20252;-87
2022/06/08 06:53:14;;;;;;;1.87;1.77;;;;;;;13.29;100.00;95869.41;5077231;28;20300;-87
2022/06/08 06:55:48;;;;;;;2.33;1.80;;;;;;;13.37;100.00;95871.66;5062321;28;20209;-87
2022/06/08 06:58:23;;;;;;;1.60;1.50;;;;;;;13.39;100.00;95869.50;5050675;28;20266;-87
2022/06/08 07:00:53;;;;;;;2.90;1.80;;;;;;;13.42;100.00;95871.72;5068650;28;20315;-88
2022/06/08 07:03:22;;;;;;;3.07;1.90;;;;;;;13.54;100.00;95868.78;5063310;28;20202;-87
2022/06/08 07:05:52;;;;;;;5.17;2.67;;;;;;;13.66;100.00;95877.56;5058482;28;20198;-87
2022/06/08 07:08:20;;;;;;;2.00;1.70;;;;;;;13.68;100.00;95874.59;5060387;28;20251;-88
2022/06/08 07:11:32;;;;;;;3.97;1.70;;;;;;;13.68;100.00;95872.72;5064477;28;20218;-88
2022/06/08 07:13:37;;;;;;;2.37;1.40;;;;;;;13.74;100.00;95870.84;5059923;28;20332;-87
2022/06/08 07:16:06;;;;;;;2.63;1.80;;;;;;;14.17;100.00;95869.72;5054863;28;20236;-88
2022/06/08 07:18:34;;;;;;;4.77;1.83;;;;;;;14.67;100.00;95860.97;5075430;28;20233;-86
2022/06/08 07:21:03;;;;;;;4.57;1.97;;;;;;;14.96;100.00;95859.44;5049150;28;20309;-87
2022/06/08 07:23:31;;;;;;;1.90;1.70;;;;;;;15.31;100.00;95864.06;5074620;28;20206;-88
2022/06/08 07:25:58;;;;;;;4.17;1.60;;;;;;;15.66;100.00;95865.97;5058445;28;20201;-87
2022/06/08 07:28:26;;;;;;;3.10;1.63;;;;;;;15.93;100.00;95851.25;5059502;28;20300;-87
2022/06/08 07:30:53;;;;;;;5.97;2.00;;;;;;;16.19;100.00;95850.91;5061536;28;20296;-87
2022/06/08 07:33:20;;;;;;;2.37;1.40;;;;;;;16.36;100.00;95856.00;5078051;28;20225;-88
2022/06/08 07:35:48;;;;;;;3.43;1.63;;;;;;;16.59;100.00;95844.44;5062595;28;20213;-87
2022/06/08 07:38:17;;;;;;;2.83;1.87;;;;;;;16.62;100.00;95857.56;5058679;28;20221;-85
2022/06/08 07:40:44;;;;;;;2.87;1.70;;;;;;;16.92;100.00;95845.69;5059156;28;20232;-84
2022/06/08 07:43:11;;;;;;;2.87;1.83;;;;;;;17.25;100.00;95844.09;5061329;28;20213;-87
2022/06/08 07:45:38;;;;;;;1.93;1.40;;;;;;;17.49;100.00;95835.16;5080198;28;20233;-88
2022/06/08 07:50:50;;;;;;;1.87;1.50;;;;;;;17.93;100.00;95811.28;5080689;28;20235;-88
2022/06/08 07:53:19;;;;;;;6.70;1.63;;;;;;;17.93;100.00;95811.28;5056988;28;20225;-89
2022/06/08 07:55:48;;;;;;;3.77;1.73;;;;;;;17.70;100.00;95792.94;5056779;28;20243;-88
2022/06/08 07:58:18;;;;;;;3.80;1.57;;;;;;;17.47;100.00;95791.78;5070883;28;20198;-90
2022/06/08 08:00:47;;;;;;;4.93;1.60;;;;;;;17.32;100.00;95791.91;5061968;28;20267;-90
2022/06/08 08:03:15;;;;;;;2.10;1.60;;;;;;;17.15;100.00;95772.41;5064200;28;20214;-90
2022/06/08 08:05:42;;;;;;;4.13;2.00;;;;;;;17.00;100.00;95767.91;5054729;28;20213;-90
2022/06/08 08:08:10;;;;;;;3.23;1.67;;;;;;;16.83;100.00;95772.94;5061400;28;20216;-91
2022/06/08 08:10:39;;;;;;;2.10;1.37;;;;;;;17.00;100.00;95776.09;5078878;28;20233;-90
2022/06/08 08:13:08;;;;;;;4.63;1.93;;;;;;;17.18;100.00;95767.19;5070464;28;20225;-90
2022/06/08 08:15:35;;;;;;;1.87;1.50;;;;;;;17.34;100.00;95765.16;5067694;28;20272;-89
2022/06/08 08:18:03;;;;;;;4.07;1.60;;;;;;;17.63;100.00;95759.72;5062408;28;20209;-89
2022/06/08 08:20:31;;;;;;;2.80;1.37;;;;;;;18.08;100.00;95751.00;5064305;28;20240;-91
2022/06/08 08:22:59;;;;;;;2.37;1.57;;;;;;;18.57;100.00;95746.28;5062267;28;20189;-89
2022/06/08 08:25:27;;;;;;;4.80;1.70;;;;;;;18.86;97.62;95744.22;5084879;28;20210;-90
2022/06/08 08:27:56;;;;;;;2.03;1.60;;;;;;;19.09;95.50;95737.81;5069440;28;20276;-90
2022/06/08 08:30:26;;;;;;;4.27;1.40;;;;;;;18.87;92.15;95740.38;5068097;28;20214;-93
2022/06/08 08:32:54;;;;;;;2.70;1.40;;;;;;;18.68;93.31;95725.91;5081890;28;20229;-90
2022/06/08 08:35:24;;;;;;;2.33;1.43;;;;;;;18.58;97.69;95724.13;5065535;28;20197;-89
2022/06/08 08:37:53;;;;;;;2.70;1.60;;;;;;;18.54;97.55;95718.38;5066808;28;20278;-92
2022/06/08 08:40:43;;;;;;;1.47;1.30;;;;;;;18.45;98.25;95706.53;5065198;28;20195;-90
2022/06/08 08:43:14;;;;;;;1.57;1.40;;;;;;;18.65;97.31;95705.41;5084861;28;20206;-89
2022/06/08 08:45:50;;;;;;;1.90;1.47;;;;;;;18.68;94.84;95702.09;5078659;28;20240;-89
2022/06/08 08:48:25;;;;;;;6.30;1.80;;;;;;;18.94;94.45;95699.78;5063254;28;20201;-91
2022/06/08 08:50:57;;;;;;;1.87;1.50;;;;;;;19.06;87.23;95688.34;5066360;28;20263;-89
2022/06/08 08:53:28;;;;;;;2.30;1.70;;;;;;;19.13;80.80;95683.31;5066427;28;20230;-92
2022/06/08 08:56:03;;;;;;;1.40;1.30;;;;;;;19.39;87.00;95689.97;5078009;28;20221;-90
2022/06/08 08:58:36;;;;;;;1.80;1.40;;;;;;;19.53;83.81;95677.13;5066804;28;20239;-92
2022/06/08 09:01:14;;;;;;;1.73;1.40;;;;;;;19.48;82.57;95681.91;5075365;28;20209;-90
2022/06/08 09:03:44;;;;;;;1.50;1.40;;;;;;;19.65;85.72;95685.63;5074362;28;20205;-92
2022/06/08 09:06:15;;;;;;;1.55;1.25;;;;;;;19.85;79.63;95678.13;5077536;28;20210;-90
2022/06/08 09:08:44;;;;;;;3.15;1.23;;;;;;;19.96;82.39;95679.56;5066443;28;20212;-93
2022/06/08 09:11:16;;;;;;;4.13;1.30;;;;;;;20.21;83.84;95676.28;5068334;28;20205;-91
2022/06/08 09:13:51;;;;;;;4.65;1.67;;;;;;;20.44;81.75;95673.59;5057108;28;20245;-90
2022/06/08 09:16:39;;;;;;;1.98;1.30;;;;;;;20.55;79.54;95672.25;5067082;28;20249;-90
2022/06/08 09:19:28;;;;;;;2.17;1.75;;;;;;;20.58;76.19;95674.41;5081687;28;20211;-89
2022/06/08 09:21:59;;;;;;;2.17;1.52;;;;;;;20.68;75.78;95663.16;5084425;28;20220;-92
2022/06/08 09:24:31;;;;;;;2.65;1.40;;;;;;;20.73;74.19;95668.53;5065313;28;20214;-92
2022/06/08 09:27:15;;;;;;;3.05;1.70;;;;;;;20.77;78.14;95661.28;5070510;28;20205;-89
2022/06/08 09:29:55;;;;;;;2.15;1.60;;;;;;;20.94;78.81;95666.91;5064544;28;20209;-91
2022/06/08 09:32:44;;;;;;;2.30;1.40;;;;;;;21.19;80.19;95654.50;5067347;28;20209;-90
2022/06/08 09:35:20;;;;;;;2.30;1.60;;;;;;;21.32;82.43;95661.84;5051300;28;20209;-91
2022/06/08 09:37:49;;;;;;;2.13;1.80;;;;;;;21.35;82.91;95652.19;5080244;28;20266;-90
2022/06/08 09:43:10;;;;;;;2.28;1.80;;;;;;;21.44;83.00;95653.00;5085225;28;20204;-90
2022/06/08 09:45:51;;;;;;;3.67;1.60;;;;;;;21.48;83.83;95645.78;5064123;28;20260;-89
2022/06/08 09:51:29;;;;;;;4.25;1.50;;;;;;;21.62;77.73;95643.72;5061059;28;20225;-89
2022/06/08 09:54:09;;;;;;;2.78;1.40;;;;;;;21.51;75.08;95640.47;5061333;28;20231;-91
2022/06/08 09:57:00;;;;;;;4.53;1.70;;;;;;;21.24;72.12;95642.59;5059621;28;20230;-90
2022/06/08 09:59:47;;;;;;;1.60;1.50;;;;;;;21.13;76.52;95642.00;5080259;28;20217;-90
2022/06/08 10:02:28;;;;;;;2.10;1.50;;;;;;;21.06;77.01;95631.47;5077372;28;20210;-90
2022/06/08 10:05:09;;;;;;;5.10;1.95;;;;;;;21.15;79.05;95629.59;5075516;28;20210;-91
2022/06/08 10:07:46;;;;;;;1.85;1.40;;;;;;;21.32;75.42;95628.91;5062011;28;20217;-90
2022/06/08 10:10:27;;;;;;;4.28;1.80;;;;;;;21.55;73.60;95620.59;5071052;28;20206;-90
2022/06/08 10:12:58;;;;;;;3.85;1.70;;;;;;;21.63;72.62;95615.13;5079493;28;20205;-89
2022/06/08 10:15:34;;;;;;;4.32;1.60;;;;;;;21.77;73.36;95618.59;5076071;28;20255;-90
2022/06/08 10:18:11;;;;;;;3.30;1.73;;;;;;;21.73;72.82;95614.84;5076992;28;20197;-91
2022/06/08 10:20:40;;;;;;;1.77;1.40;;;;;;;21.64;70.82;95614.00;5078897;28;20209;-90
2022/06/08 10:23:27;;;;;;;2.03;1.50;;;;;;;21.61;71.95;95603.63;5067080;28;20208;-90
2022/06/08 10:26:00;;;;;;;2.13;1.50;;;;;;;21.63;70.78;95608.81;5077176;28;20293;-90
2022/06/08 10:28:46;;;;;;;4.53;1.58;;;;;;;21.52;71.51;95602.81;5064879;28;20197;-89
2022/06/08 10:31:19;;;;;;;2.13;1.30;;;;;;;21.34;75.61;95607.44;5065232;28;20218;-90
2022/06/08 10:33:56;;;;;;;2.92;1.60;;;;;;;21.46;75.38;95606.81;5067095;28;20218;-90
2022/06/08 10:36:24;;;;;;;3.35;1.95;;;;;;;21.51;75.28;95599.28;5063278;28;20339;-88
2022/06/08 10:38:51;;;;;;;2.17;1.60;;;;;;;21.79;75.90;95593.50;5056740;28;20209;-88
2022/06/08 10:44:51;;;;;;;4.53;1.70;;;;;;;21.81;71.58;95580.25;5075330;28;20234;-87
2022/06/08 10:47:27;;;;;;;6.28;1.55;;;;;;;21.80;70.68;95579.47;5041718;28;20215;-83
2022/06/08 10:50:15;;;;;;;3.45;1.58;;;;;;;21.96;69.64;95576.25;5069545;28;20232;-83
2022/06/08 10:52:45;;;;;;;2.92;1.70;;;;;;;22.13;71.43;95570.81;5076079;28;20232;-87
2022/06/08 10:55:37;;;;;;;3.20;1.42;;;;;;;22.33;69.42;95564.66;5063726;28;20224;-86
2022/06/08 10:58:11;;;;;;;5.03;1.58;;;;;;;22.43;69.16;95561.59;5064828;28;20209;-87
2022/06/08 11:01:06;;;;;;;3.15;1.40;;;;;;;22.54;67.82;95560.13;5052494;28;20216;-87
2022/06/08 11:03:54;;;;;;;3.75;1.60;;;;;;;22.54;64.02;95554.63;5056810;28;20206;-86
2022/06/08 11:07:03;;;;;;;2.15;1.40;;;;;;;22.67;65.26;95547.31;5058339;28;20237;-86
2022/06/08 11:09:51;;;;;;;1.77;1.50;;;;;;;22.69;65.31;95534.06;5072075;28;20212;-85
2022/06/08 11:12:30;;;;;;;3.03;1.48;;;;;;;22.72;66.06;95533.38;5043637;28;20198;-88
2022/06/08 11:15:01;;;;;;;5.75;1.63;;;;;;;22.85;66.97;95531.63;5060391;28;20226;-89
2022/06/08 11:17:34;;;;;;;4.80;1.52;;;;;;;23.13;65.78;95538.34;5062786;28;20218;-89
2022/06/08 11:20:13;;;;;;;4.32;1.42;;;;;;;23.39;63.57;95530.75;5070853;28;20213;-91
2022/06/08 11:22:45;;;;;;;3.42;1.25;;;;;;;23.49;61.77;95520.53;5066743;28;20203;-91
2022/06/08 11:25:22;;;;;;;3.35;1.40;;;;;;;23.57;60.66;95523.22;5063514;28;20209;-90
2022/06/08 11:28:32;;;;;;;4.88;1.50;;;;;;;23.56;62.84;95513.34;5058605;28;20206;-88
2022/06/08 11:31:01;;;;;;;2.38;1.40;;;;;;;23.65;61.38;95510.53;5075158;28;20201;-89
2022/06/08 11:33:55;;;;;;;2.88;1.42;;;;;;;23.77;59.24;95505.94;5061884;28;20230;-88
2022/06/08 11:36:53;;;;;;;2.05;1.30;;;;;;;24.12;60.54;95503.72;5051727;28;20198;-89
2022/06/08 11:39:29;;;;;;;1.48;1.20;;;;;;;24.00;59.39;95509.16;5049374;28;20225;-89
2022/06/08 11:42:01;;;;;;;3.60;1.50;;;;;;;23.83;59.56;95506.53;5074211;28;20223;-89
2022/06/08 11:44:34;;;;;;;3.50;1.70;;;;;;;23.84;60.40;95496.31;5076316;28;20229;-88
2022/06/08 11:47:16;;;;;;;1.45;1.30;;;;;;;23.70;60.12;95502.09;5082371;28;20209;-88
2022/06/08 11:49:46;;;;;;;4.88;1.42;;;;;;;23.55;60.15;95506.25;5079718;28;20297;-90
2022/06/08 11:52:44;;;;;;;2.22;1.40;;;;;;;23.31;59.62;95490.28;5064732;28;20271;-89
2022/06/08 11:55:17;;;;;;;2.28;1.17;;;;;;;23.37;60.41;95504.69;5065031;28;20335;-88
2022/06/08 11:57:50;;;;;;;2.78;1.60;;;;;;;23.15;62.02;95508.50;5076799;28;20202;-90
2022/06/08 12:00:29;;;;;;;1.77;1.38;;;;;;;22.81;61.57;95505.88;5067544;28;20240;-89
2022/06/08 12:03:00;;;;;;;3.65;1.30;;;;;;;22.36;62.91;95502.72;5078769;28;20210;-88
2022/06/08 12:05:31;;;;;;;1.65;1.30;;;;;;;22.31;63.75;95505.63;5069622;28;20263;-87
2022/06/08 12:08:03;;;;;;;1.85;1.63;;;;;;;22.13;65.39;95500.13;5069701;28;20232;-88
2022/06/08 12:10:34;;;;;;;2.58;1.52;;;;;;;22.05;66.60;95502.88;5070224;28;20201;-87